CheckWX is a tool to help pilots better visualize weather data.  It is not intended as a substitute for an official pre-flight weather briefing.

19:24:51 UTC

DNEN METAR
Akanu Ibiam International Airport
Enegu, Nigeria
Current

25 mins ago

DNEN 261900Z 26004KT 5000 -TSRA BKN008 FEW018CB 23/22 Q1013 TEMPO 09010G20KT 5000 -TSRA
Observed
May-26 @ 19:00 UTC
Wind
  • 260° at 4 KTS
Visibility
5,005 meters
Flight Rules
IFR
Conditions
Light Thunderstorm, Light Rain
Cloud Levels
  • Broken at 800' AGL
  • Few at 1,800' AGL
Temperature
23°C / 73°F
Dewpoint
22°C / 72°F
Humidity
94%
Altimeter
29.91" Hg
Pressure
1012.92 hPa
Previous

3 hours ago

DNEN 261600Z VRB02KT 5000 -TSRA BKN011 FEW018CB 23/22 Q1011 TEMPO 3000 -TSRA
Observed
May-26 @ 16:00 UTC
Wind
  • Variable at 2 KTS
Visibility
5,005 meters
Flight Rules
MVFR
Conditions
Light Thunderstorm, Light Rain
Cloud Levels
  • Broken at 1,100' AGL
  • Few at 1,800' AGL
Temperature
23°C / 73°F
Dewpoint
22°C / 72°F
Humidity
94%
Altimeter
29.85" Hg
Pressure
1010.92 hPa
Previous

11 hours ago

DNEN 260800Z 20004KT 9999 SCT010 26/24 Q1014 NOSIG
Observed
May-26 @ 08:00 UTC
Wind
  • 200° at 4 KTS
Visibility
10,000+ meters
Flight Rules
VFR
Cloud Levels
  • Scattered at 1,000' AGL
Temperature
26°C / 79°F
Dewpoint
24°C / 75°F
Humidity
89%
Altimeter
29.94" Hg
Pressure
1013.92 hPa